Monongah, West Virginia
Current Conditions -  °F | °C
As of 11:07 PM on Tuesday 21 Oct 2014 (Local Time) from KCKB Reporting Station
Overcast Overcast  
Wind Chill: 44°   Ceiling: 1400
Heat Index: 47°   Visibility: 10mi
Dew Point: 44°   Wind: 6mph
Humidity: 90%   Direction: 300°WNW
Pressure: 30.04"   Gusts: NA
Location:  39.485°N, 80.1426°W
Report Text: KCKB 220307Z AUTO 30005KT 10SM OVC014 08/07 A3004 RMK AO2 T00830067 TSNO $
Loading
Personal Weather Stations






























Interactive Weather Map
Tropical Storm Tracking
New forecast layout! Learn more

10-Day Weather Forecast

Advertisements
Track Severe Weather on mobile